createdAt,value
2018-08-24T00:00:41.604Z,100484.55
2018-08-24T00:03:11.720Z,100481.08
2018-08-24T00:05:41.894Z,100476.11
2018-08-24T00:08:12.093Z,100477.19
2018-08-24T00:10:42.223Z,100477.80
2018-08-24T00:13:12.417Z,100482.53
2018-08-24T00:15:42.636Z,100485.33
2018-08-24T00:18:12.872Z,100487.08
2018-08-24T00:20:43.004Z,100483.97
2018-08-24T00:23:13.330Z,100483.05
2018-08-24T00:25:43.623Z,100479.64
2018-08-24T00:28:13.709Z,100479.22
2018-08-24T00:30:43.816Z,100480.34
2018-08-24T00:33:13.915Z,100484.59
2018-08-24T00:35:44.090Z,100489.09
2018-08-24T00:38:14.160Z,100487.78
2018-08-24T00:40:44.330Z,100488.95
2018-08-24T00:43:14.512Z,100485.70
2018-08-24T00:45:44.644Z,100482.55
2018-08-24T00:48:14.727Z,100471.39
2018-08-24T00:50:44.864Z,100475.88
2018-08-24T00:53:14.962Z,100463.14
2018-08-24T00:55:45.164Z,100474.17
2018-08-24T00:58:15.300Z,100472.22
2018-08-24T01:00:45.704Z,100459.62
2018-08-24T01:03:15.822Z,100466.54
2018-08-24T01:05:45.972Z,100466.18
2018-08-24T01:08:15.999Z,100466.64
2018-08-24T01:10:46.082Z,100462.05
2018-08-24T01:13:16.398Z,100459.84
2018-08-24T01:15:57.860Z,100472.81
2018-08-24T01:18:33.086Z,100472.08
2018-08-24T01:21:03.321Z,100472.92
2018-08-24T01:23:34.600Z,100473.42
2018-08-24T01:26:04.824Z,100469.77
2018-08-24T01:28:34.947Z,100474.51
2018-08-24T01:31:09.850Z,100474.02
2018-08-24T01:33:39.896Z,100472.30
2018-08-24T01:36:10.017Z,100475.95
2018-08-24T01:38:40.181Z,100468.92
2018-08-24T01:41:10.284Z,100472.92
2018-08-24T01:43:40.386Z,100466.22
2018-08-24T01:46:13.847Z,100463.66
2018-08-24T01:48:43.968Z,100472.35
2018-08-24T01:51:14.115Z,100474.13
2018-08-24T01:53:44.244Z,100465.13
2018-08-24T01:56:14.387Z,100462.07
2018-08-24T01:58:44.494Z,100468.97
2018-08-24T02:01:14.643Z,100467.47
2018-08-24T02:03:44.759Z,100471.20
2018-08-24T02:06:14.826Z,100467.89
2018-08-24T02:08:44.961Z,100468.88
2018-08-24T02:11:20.084Z,100470.30
2018-08-24T02:13:55.231Z,100472.98
2018-08-24T02:16:25.447Z,100472.48
2018-08-24T02:19:00.540Z,100471.30
2018-08-24T02:21:35.760Z,100471.30
2018-08-24T02:24:06.198Z,100464.34
2018-08-24T02:26:36.358Z,100458.23
2018-08-24T02:29:06.455Z,100468.99
2018-08-24T02:31:41.774Z,100464.00
2018-08-24T02:34:11.944Z,100470.30
2018-08-24T02:36:42.126Z,100465.98
2018-08-24T02:39:15.316Z,100464.67
2018-08-24T02:41:45.553Z,100469.55
2018-08-24T02:44:15.719Z,100463.25
2018-08-24T02:46:45.991Z,100460.84
2018-08-24T02:49:16.114Z,100459.84
2018-08-24T02:51:46.302Z,100459.82
2018-08-24T02:54:16.404Z,100465.14
2018-08-24T02:56:46.535Z,100474.45
2018-08-24T02:59:16.617Z,100470.70
2018-08-24T03:01:46.651Z,100462.72
2018-08-24T03:04:16.781Z,100464.74
2018-08-24T03:06:46.915Z,100467.23
2018-08-24T03:09:17.021Z,100460.30
2018-08-24T03:11:47.163Z,100457.95
2018-08-24T03:14:17.189Z,100461.04
2018-08-24T03:16:52.475Z,100459.33
2018-08-24T03:19:22.611Z,100457.12
2018-08-24T03:21:52.769Z,100464.39
2018-08-24T03:24:22.861Z,100470.66
2018-08-24T03:26:52.999Z,100467.28
2018-08-24T03:29:23.065Z,100470.14
2018-08-24T03:31:53.224Z,100471.47
2018-08-24T03:34:23.327Z,100477.57
2018-08-24T03:36:54.603Z,100479.25
2018-08-24T03:39:24.743Z,100476.12
2018-08-24T03:41:54.899Z,100475.45
2018-08-24T03:44:24.958Z,100474.05
2018-08-24T03:46:55.208Z,100472.22
2018-08-24T03:49:25.331Z,100473.45
2018-08-24T03:51:55.454Z,100473.97
2018-08-24T03:54:25.520Z,100469.81
2018-08-24T03:56:56.570Z,100478.11
2018-08-24T03:59:27.164Z,100483.89
2018-08-24T04:01:57.838Z,100484.89
2018-08-24T04:04:27.948Z,100489.84
2018-08-24T04:06:58.092Z,100488.14
2018-08-24T04:09:28.197Z,100495.17
2018-08-24T04:11:58.296Z,100484.87
2018-08-24T04:14:28.389Z,100494.45
2018-08-24T04:17:03.472Z,100492.55
2018-08-24T04:19:33.625Z,100493.12
2018-08-24T04:22:03.739Z,100491.31
2018-08-24T04:24:33.803Z,100498.21
2018-08-24T04:27:03.918Z,100493.35
2018-08-24T04:29:34.032Z,100496.86
2018-08-24T04:32:04.404Z,100493.70
2018-08-24T04:34:34.512Z,100501.84
2018-08-24T04:37:04.699Z,100502.80
2018-08-24T04:39:34.858Z,100506.59
2018-08-24T04:42:04.963Z,100503.70
2018-08-24T04:44:35.026Z,100499.11
2018-08-24T04:47:05.251Z,100504.35
2018-08-24T04:49:35.442Z,100505.45
2018-08-24T04:52:05.578Z,100501.11
2018-08-24T04:54:35.623Z,100499.64
2018-08-24T04:57:05.786Z,100501.72
2018-08-24T04:59:35.877Z,100506.62
2018-08-24T05:02:06.142Z,100499.64
2018-08-24T05:04:36.287Z,100497.47
2018-08-24T05:07:06.509Z,100495.55
2018-08-24T05:09:36.824Z,100495.53
2018-08-24T05:12:07.148Z,100489.96
2018-08-24T05:14:37.214Z,100490.70
2018-08-24T05:17:07.483Z,100494.96
2018-08-24T05:19:37.545Z,100498.86
2018-08-24T05:22:07.834Z,100501.18
2018-08-24T05:24:37.900Z,100503.27
2018-08-24T05:27:07.747Z,100502.95
2018-08-24T05:29:37.853Z,100504.05
2018-08-24T05:32:07.947Z,100500.54
2018-08-24T05:34:38.021Z,100506.71
2018-08-24T05:37:08.150Z,100502.52
2018-08-24T05:39:38.245Z,100507.16
2018-08-24T05:42:08.438Z,100512.99
2018-08-24T05:44:38.583Z,100511.45
2018-08-24T05:47:08.915Z,100510.37
2018-08-24T05:49:39.100Z,100513.91
2018-08-24T05:52:09.327Z,100513.42
2018-08-24T05:54:39.520Z,100517.92
2018-08-24T05:57:09.709Z,100518.97
2018-08-24T05:59:39.930Z,100522.97
2018-08-24T06:02:10.186Z,100525.53
2018-08-24T06:04:40.318Z,100522.66
2018-08-24T06:07:10.461Z,100525.72
2018-08-24T06:09:40.531Z,100518.41
2018-08-24T06:12:10.712Z,100529.58
2018-08-24T06:14:40.794Z,100522.31
2018-08-24T06:17:16.065Z,100518.06
2018-08-24T06:19:46.085Z,100514.20
2018-08-24T06:22:16.204Z,100521.25
2018-08-24T06:24:46.361Z,100521.73
2018-08-24T06:27:16.653Z,100532.41
2018-08-24T06:29:46.767Z,100526.45
2018-08-24T06:32:17.116Z,100521.73
2018-08-24T06:34:47.476Z,100538.70
2018-08-24T06:37:17.666Z,100540.55
2018-08-24T06:39:47.750Z,100539.08
2018-08-24T06:42:17.994Z,100537.63
2018-08-24T06:44:48.135Z,100547.58
2018-08-24T06:47:18.503Z,100548.66
2018-08-24T06:49:48.556Z,100552.30
2018-08-24T06:52:19.679Z,100552.64
2018-08-24T06:54:50.122Z,100558.33
2018-08-24T06:57:20.721Z,100555.97
2018-08-24T06:59:50.993Z,100551.35
2018-08-24T07:02:21.258Z,100551.36
2018-08-24T07:04:51.298Z,100560.19
2018-08-24T07:07:21.413Z,100571.53
2018-08-24T07:09:51.475Z,100569.63
2018-08-24T07:12:21.589Z,100569.19
2018-08-24T07:14:51.775Z,100570.87
2018-08-24T07:17:26.789Z,100575.86
2018-08-24T07:19:56.907Z,100582.02
2018-08-24T07:22:27.090Z,100591.47
2018-08-24T07:24:57.241Z,100594.64
2018-08-24T07:27:27.388Z,100590.11
2018-08-24T07:29:57.440Z,100591.55
2018-08-24T07:32:27.558Z,100611.06
2018-08-24T07:34:57.729Z,100604.06
2018-08-24T07:37:27.849Z,100596.95
2018-08-24T07:39:57.942Z,100602.36
2018-08-24T07:42:28.108Z,100606.53
2018-08-24T07:44:58.144Z,100602.20
2018-08-24T07:47:28.244Z,100610.60
2018-08-24T07:49:58.322Z,100615.70
2018-08-24T07:52:28.370Z,100615.84
2018-08-24T07:54:58.492Z,100621.78
2018-08-24T07:57:28.622Z,100617.47
2018-08-24T07:59:58.698Z,100627.66
2018-08-24T08:02:33.887Z,100626.57
2018-08-24T08:05:04.063Z,100620.03
2018-08-24T08:07:34.301Z,100629.27
2018-08-24T08:10:04.415Z,100629.22
2018-08-24T08:12:34.650Z,100625.31
2018-08-24T08:15:09.825Z,100632.81
2018-08-24T08:17:40.998Z,100631.76
2018-08-24T08:20:11.460Z,100637.98
2018-08-24T08:22:41.590Z,100639.03
2018-08-24T08:25:11.780Z,100642.68
2018-08-24T08:27:42.144Z,100649.55
2018-08-24T08:30:12.302Z,100650.28
2018-08-24T08:32:42.417Z,100652.32
2018-08-24T08:35:12.504Z,100646.54
2018-08-24T08:37:42.612Z,100652.55
2018-08-24T08:40:12.699Z,100649.04
2018-08-24T08:42:43.681Z,100649.47
2018-08-24T08:45:13.801Z,100653.52
2018-08-24T08:47:43.932Z,100660.02
2018-08-24T08:50:14.058Z,100666.81
2018-08-24T08:52:44.170Z,100675.17
2018-08-24T08:55:14.279Z,100667.48
2018-08-24T08:57:44.399Z,100670.61
2018-08-24T09:00:14.470Z,100677.92
2018-08-24T09:02:44.637Z,100675.92
2018-08-24T09:05:14.858Z,100673.38
2018-08-24T09:07:45.017Z,100671.64
2018-08-24T09:10:15.090Z,100675.34
2018-08-24T09:12:45.242Z,100676.00
2018-08-24T09:15:15.328Z,100678.40
2018-08-24T09:17:50.331Z,100680.10
2018-08-24T09:20:25.475Z,100678.75
2018-08-24T09:23:00.564Z,100673.67
2018-08-24T09:25:35.664Z,100669.16
2018-08-24T09:28:10.908Z,100679.17
2018-08-24T09:31:44.668Z,100680.73
2018-08-24T09:34:14.928Z,100687.86
2018-08-24T09:36:45.092Z,100687.91
2018-08-24T09:39:15.285Z,100687.53
2018-08-24T09:41:45.440Z,100681.26
2018-08-24T09:44:15.606Z,100685.83
2018-08-24T09:46:50.692Z,100697.01
2018-08-24T09:49:25.976Z,100693.28
2018-08-24T09:51:56.081Z,100703.03
2018-08-24T09:54:26.207Z,100691.98
2018-08-24T09:56:56.485Z,100702.91
2018-08-24T09:59:26.599Z,100696.16
2018-08-24T10:02:01.787Z,100690.27
2018-08-24T10:04:36.974Z,100687.52
2018-08-24T10:07:12.007Z,100678.98
2018-08-24T10:09:42.152Z,100683.55
2018-08-24T10:12:12.326Z,100689.94
2018-08-24T10:14:42.466Z,100691.37
2018-08-24T10:17:12.649Z,100688.77
2018-08-24T10:19:45.554Z,100689.72
2018-08-24T10:22:15.629Z,100684.64
2018-08-24T10:24:45.739Z,100686.12
2018-08-24T10:27:15.773Z,100674.07
2018-08-24T10:29:45.932Z,100675.68
2018-08-24T10:32:15.994Z,100679.15
2018-08-24T10:34:46.198Z,100688.44
2018-08-24T10:37:16.292Z,100682.66
2018-08-24T10:39:46.381Z,100687.28
2018-08-24T10:42:16.540Z,100690.31
2018-08-24T10:44:46.632Z,100692.27
2018-08-24T10:47:16.849Z,100690.40
2018-08-24T10:49:46.912Z,100687.95
2018-08-24T10:52:17.052Z,100690.05
2018-08-24T10:54:47.196Z,100691.72
2018-08-24T10:57:17.270Z,100692.80
2018-08-24T10:59:47.348Z,100684.78
2018-08-24T11:02:17.464Z,100683.36
2018-08-24T11:04:47.571Z,100683.55
2018-08-24T11:07:17.803Z,100693.09
2018-08-24T11:09:47.884Z,100685.28
2018-08-24T11:12:18.183Z,100692.23
2018-08-24T11:14:48.334Z,100689.35
2018-08-24T11:17:18.516Z,100680.25
2018-08-24T11:19:48.601Z,100684.13
2018-08-24T11:22:18.720Z,100689.71
2018-08-24T11:24:48.959Z,100693.14
2018-08-24T11:27:19.079Z,100700.95
2018-08-24T11:29:49.235Z,100694.97
2018-08-24T11:32:19.350Z,100699.89
2018-08-24T11:34:49.477Z,100697.11
2018-08-24T11:37:19.638Z,100691.50
2018-08-24T11:39:49.778Z,100698.30
2018-08-24T11:42:19.895Z,100689.89
2018-08-24T11:44:50.056Z,100686.73
2018-08-24T11:47:20.911Z,100692.22
2018-08-24T11:49:52.396Z,100694.56
2018-08-24T11:52:22.928Z,100694.73
2018-08-24T11:54:53.045Z,100695.16
2018-08-24T11:57:23.168Z,100695.03
2018-08-24T11:59:53.311Z,100701.11
2018-08-24T12:02:23.546Z,100698.22
2018-08-24T12:04:53.659Z,100686.03
2018-08-24T12:07:23.726Z,100694.50
2018-08-24T12:09:53.851Z,100692.67
2018-08-24T12:12:24.072Z,100688.66
2018-08-24T12:14:54.158Z,100679.43
2018-08-24T12:17:31.882Z,100684.73
2018-08-24T12:20:02.102Z,100688.30
2018-08-24T12:22:32.255Z,100684.13
2018-08-24T12:25:02.422Z,100691.56
2018-08-24T12:27:32.599Z,100689.55
2018-08-24T12:30:02.733Z,100690.59
2018-08-24T12:32:32.868Z,100686.91
2018-08-24T12:35:03.059Z,100686.71
2018-08-24T12:37:48.241Z,100690.27
2018-08-24T12:40:18.382Z,100689.31
2018-08-24T12:42:48.560Z,100693.28
2018-08-24T12:45:18.672Z,100683.73
2018-08-24T12:47:48.747Z,100692.66
2018-08-24T12:50:18.952Z,100674.80
2018-08-24T12:52:49.013Z,100674.17
2018-08-24T12:55:19.261Z,100675.45
2018-08-24T12:57:49.409Z,100680.53
2018-08-24T13:00:19.581Z,100673.78
2018-08-24T13:02:49.730Z,100667.67
2018-08-24T13:05:19.871Z,100672.78
2018-08-24T13:07:49.964Z,100672.88
2018-08-24T13:10:20.107Z,100668.16
2018-08-24T13:12:50.204Z,100666.06
2018-08-24T13:15:20.555Z,100665.64
2018-08-24T13:17:50.562Z,100666.66
2018-08-24T13:20:20.857Z,100662.73
2018-08-24T13:22:50.982Z,100664.82
2018-08-24T13:25:21.143Z,100667.30
2018-08-24T13:27:51.242Z,100668.80
2018-08-24T13:30:21.419Z,100664.28
2018-08-24T13:32:51.577Z,100664.61
2018-08-24T13:35:21.769Z,100665.13
2018-08-24T13:37:51.848Z,100666.57
2018-08-24T13:40:22.030Z,100654.41
2018-08-24T13:42:52.173Z,100660.72
2018-08-24T13:45:22.238Z,100671.59
2018-08-24T13:47:52.441Z,100664.95
2018-08-24T13:50:22.640Z,100665.55
2018-08-24T13:52:52.886Z,100661.02
2018-08-24T13:55:23.061Z,100662.75
2018-08-24T13:57:53.268Z,100662.73
2018-08-24T14:00:23.426Z,100655.44
2018-08-24T14:02:53.722Z,100655.94
2018-08-24T14:05:24.085Z,100654.69
2018-08-24T14:07:54.149Z,100651.11
2018-08-24T14:10:24.296Z,100658.52
2018-08-24T14:12:54.471Z,100635.87
2018-08-24T14:15:24.697Z,100653.94
2018-08-24T14:17:55.491Z,100648.77
2018-08-24T14:20:25.910Z,100646.09
2018-08-24T14:22:56.061Z,100643.66
2018-08-24T14:25:26.216Z,100639.45
2018-08-24T14:27:56.432Z,100640.92
2018-08-24T14:30:26.533Z,100636.95
2018-08-24T14:32:56.663Z,100632.62
2018-08-24T14:35:26.798Z,100638.97
2018-08-24T14:37:56.908Z,100640.86
2018-08-24T14:40:27.120Z,100637.33
2018-08-24T14:42:57.178Z,100639.50
2018-08-24T14:45:27.325Z,100644.23
2018-08-24T14:47:57.607Z,100635.20
2018-08-24T14:50:27.748Z,100626.61
2018-08-24T14:52:57.909Z,100644.11
2018-08-24T14:55:28.009Z,100640.92
2018-08-24T14:57:58.130Z,100641.51
2018-08-24T15:00:28.246Z,100647.58
2018-08-24T15:02:58.294Z,100642.98
2018-08-24T15:05:28.375Z,100648.75
2018-08-24T15:07:58.511Z,100647.09
2018-08-24T15:10:28.681Z,100644.01
2018-08-24T15:12:58.876Z,100642.76
2018-08-24T15:15:28.954Z,100640.64
2018-08-24T15:17:59.085Z,100638.18
2018-08-24T15:20:29.152Z,100634.50
2018-08-24T15:22:59.234Z,100641.08
2018-08-24T15:25:29.514Z,100633.06
2018-08-24T15:27:59.593Z,100638.12
2018-08-24T15:30:29.795Z,100630.50
2018-08-24T15:32:59.921Z,100630.40
2018-08-24T15:35:30.120Z,100628.41
2018-08-24T15:38:00.199Z,100623.95
2018-08-24T15:40:30.346Z,100632.64
2018-08-24T15:43:00.575Z,100628.78
2018-08-24T15:45:30.762Z,100631.03
2018-08-24T15:48:00.830Z,100633.20
2018-08-24T15:50:30.994Z,100635.91
2018-08-24T15:53:01.094Z,100635.62
2018-08-24T15:55:31.208Z,100636.34
2018-08-24T15:58:01.282Z,100634.18
2018-08-24T16:00:31.441Z,100633.77
2018-08-24T16:03:01.578Z,100632.54
2018-08-24T16:05:31.655Z,100631.44
2018-08-24T16:08:01.751Z,100633.28
2018-08-24T16:10:31.896Z,100629.32
2018-08-24T16:13:02.044Z,100637.91
2018-08-24T16:15:32.141Z,100632.02
2018-08-24T16:18:07.335Z,100635.05
2018-08-24T16:20:37.524Z,100636.12
2018-08-24T16:23:08.272Z,100641.27
2018-08-24T16:25:38.325Z,100641.41
2018-08-24T16:28:08.557Z,100635.22
2018-08-24T16:30:38.713Z,100638.34
2018-08-24T16:33:08.911Z,100646.61
2018-08-24T16:35:39.049Z,100649.63
2018-08-24T16:38:09.231Z,100653.83
2018-08-24T16:40:39.345Z,100645.04
2018-08-24T16:43:09.423Z,100646.49
2018-08-24T16:45:39.517Z,100641.38
2018-08-24T16:48:09.627Z,100640.56
2018-08-24T16:50:39.790Z,100646.30
2018-08-24T16:53:09.896Z,100647.41
2018-08-24T16:55:40.093Z,100651.47
2018-08-24T16:58:10.237Z,100653.09
2018-08-24T17:00:40.501Z,100651.56
2018-08-24T17:03:10.605Z,100649.89
2018-08-24T17:05:40.726Z,100648.33
2018-08-24T17:08:10.746Z,100655.23
2018-08-24T17:10:40.781Z,100656.61
2018-08-24T17:13:10.852Z,100652.84
2018-08-24T17:15:41.047Z,100641.91
2018-08-24T17:18:11.052Z,100647.16
2018-08-24T17:20:41.204Z,100642.08
2018-08-24T17:23:11.295Z,100646.94
2018-08-24T17:25:41.364Z,100642.19
2018-08-24T17:28:11.451Z,100642.20
2018-08-24T17:30:41.563Z,100636.34
2018-08-24T17:33:11.643Z,100637.69
2018-08-24T17:35:41.736Z,100636.12
2018-08-24T17:38:11.840Z,100637.23
2018-08-24T17:40:41.949Z,100637.82
2018-08-24T17:43:12.009Z,100641.22
2018-08-24T17:45:42.166Z,100641.47
2018-08-24T17:48:12.242Z,100637.72
2018-08-24T17:50:42.278Z,100642.44
2018-08-24T17:53:12.387Z,100641.95
2018-08-24T17:55:42.474Z,100642.55
2018-08-24T17:58:12.526Z,100638.13
2018-08-24T18:00:42.694Z,100636.44
2018-08-24T18:03:12.766Z,100639.11
2018-08-24T18:05:42.886Z,100637.39
2018-08-24T18:08:12.996Z,100637.14
2018-08-24T18:10:43.138Z,100635.91
2018-08-24T18:13:13.185Z,100636.12
2018-08-24T18:15:43.299Z,100634.42
2018-08-24T18:18:13.377Z,100638.02
2018-08-24T18:20:43.519Z,100638.52
2018-08-24T18:23:13.601Z,100642.62
2018-08-24T18:25:43.776Z,100637.37
2018-08-24T18:28:13.945Z,100642.66
2018-08-24T18:30:44.073Z,100639.06
2018-08-24T18:33:14.112Z,100636.27
2018-08-24T18:35:44.432Z,100636.67
2018-08-24T18:38:14.628Z,100638.55
2018-08-24T18:40:44.728Z,100645.05
2018-08-24T18:43:14.791Z,100645.72
2018-08-24T18:45:44.838Z,100643.09
2018-08-24T18:48:14.939Z,100640.39
2018-08-24T18:50:45.221Z,100638.16
2018-08-24T18:53:15.268Z,100642.86
2018-08-24T18:55:45.512Z,100642.83
2018-08-24T18:58:15.589Z,100646.27
2018-08-24T19:00:45.744Z,100652.80
2018-08-24T19:03:15.814Z,100651.95
2018-08-24T19:05:45.921Z,100654.59
2018-08-24T19:08:15.989Z,100657.75
2018-08-24T19:10:51.285Z,100660.23
2018-08-24T19:13:21.435Z,100661.03
2018-08-24T19:15:51.593Z,100663.87
2018-08-24T19:18:26.784Z,100661.03
2018-08-24T19:21:01.887Z,100661.79
2018-08-24T19:23:32.104Z,100659.05
2018-08-24T19:26:02.334Z,100657.94
2018-08-24T19:28:37.506Z,100663.71
2018-08-24T19:31:07.694Z,100661.27
2018-08-24T19:33:37.750Z,100660.73
2018-08-24T19:36:08.076Z,100658.86
2018-08-24T19:38:38.261Z,100656.16
2018-08-24T19:41:13.366Z,100651.63
2018-08-24T19:43:43.430Z,100652.83
2018-08-24T19:46:13.582Z,100652.29
2018-08-24T19:48:48.796Z,100649.27
2018-08-24T19:51:18.913Z,100654.06
2018-08-24T19:53:49.338Z,100656.78
2018-08-24T19:56:19.505Z,100642.73
2018-08-24T19:58:54.844Z,100644.77
2018-08-24T20:01:24.971Z,100644.67
2018-08-24T20:03:55.219Z,100654.34
2018-08-24T20:06:30.603Z,100644.97
2018-08-24T20:09:05.911Z,100640.92
2018-08-24T20:11:36.107Z,100635.55
2018-08-24T20:14:06.205Z,100634.05
2018-08-24T20:16:41.310Z,100635.83
2018-08-24T20:19:11.467Z,100629.38
2018-08-24T20:21:41.617Z,100630.66
2018-08-24T20:24:11.887Z,100627.83
2018-08-24T20:26:41.963Z,100626.94
2018-08-24T20:29:12.062Z,100625.39
2018-08-24T20:31:42.180Z,100623.91
2018-08-24T20:34:12.278Z,100622.19
2018-08-24T20:36:42.369Z,100622.02
2018-08-24T20:39:12.689Z,100616.33
2018-08-24T20:42:06.835Z,100615.44
2018-08-24T20:44:46.046Z,100608.66
2018-08-24T20:47:16.279Z,100603.80
2018-08-24T20:49:46.655Z,100605.31
2018-08-24T20:52:16.877Z,100606.09
2018-08-24T20:54:47.078Z,100603.32
2018-08-24T20:57:17.324Z,100602.29
2018-08-24T20:59:47.496Z,100604.41
2018-08-24T21:02:17.668Z,100601.35
2018-08-24T21:04:49.147Z,100603.95
2018-08-24T21:07:19.397Z,100595.42
2018-08-24T21:09:49.899Z,100592.98
2018-08-24T21:12:20.154Z,100594.12
2018-08-24T21:14:54.246Z,100583.88
2018-08-24T21:17:24.375Z,100584.74
2018-08-24T21:19:54.666Z,100592.04
2018-08-24T21:22:24.817Z,100582.87
2018-08-24T21:24:54.987Z,100587.92
2018-08-24T21:27:25.192Z,100572.92
2018-08-24T21:29:57.854Z,100573.54
2018-08-24T21:32:33.914Z,100572.03
2018-08-24T21:35:04.036Z,100572.23
2018-08-24T21:37:34.315Z,100583.41
2018-08-24T21:40:04.457Z,100578.31
2018-08-24T21:42:34.642Z,100585.14
2018-08-24T21:45:04.832Z,100587.60
2018-08-24T21:47:35.004Z,100582.94
2018-08-24T21:50:05.474Z,100588.25
2018-08-24T21:52:35.748Z,100586.75
2018-08-24T21:55:06.160Z,100586.64
2018-08-24T21:57:36.327Z,100593.11
2018-08-24T22:00:10.905Z,100595.56
2018-08-24T22:02:42.043Z,100585.30
2018-08-24T22:05:12.146Z,100589.19
2018-08-24T22:07:42.349Z,100587.75
2018-08-24T22:10:15.294Z,100581.28
2018-08-24T22:12:45.438Z,100578.12
2018-08-24T22:15:15.626Z,100580.27
2018-08-24T22:17:45.855Z,100577.91
2018-08-24T22:20:16.010Z,100579.20
2018-08-24T22:22:46.181Z,100586.59
2018-08-24T22:25:16.269Z,100585.77
2018-08-24T22:27:46.515Z,100584.03
2018-08-24T22:30:16.774Z,100589.71
2018-08-24T22:32:46.876Z,100593.00
2018-08-24T22:35:16.949Z,100591.99
2018-08-24T22:37:47.022Z,100592.53
2018-08-24T22:40:17.079Z,100591.41
2018-08-24T22:42:47.245Z,100580.41
2018-08-24T22:45:17.362Z,100572.97
2018-08-24T22:47:47.519Z,100567.91
2018-08-24T22:50:17.733Z,100577.75
2018-08-24T22:52:47.885Z,100573.71
2018-08-24T22:55:17.929Z,100568.63
2018-08-24T22:57:48.001Z,100565.42
2018-08-24T23:00:18.064Z,100559.30
2018-08-24T23:02:48.158Z,100549.98
2018-08-24T23:05:18.220Z,100549.46
2018-08-24T23:07:48.296Z,100550.82
2018-08-24T23:10:18.407Z,100544.48
2018-08-24T23:12:48.502Z,100539.05
2018-08-24T23:15:18.593Z,100542.03
2018-08-24T23:17:48.771Z,100537.08
2018-08-24T23:20:19.031Z,100535.37
2018-08-24T23:22:49.191Z,100529.66
2018-08-24T23:25:19.252Z,100520.61
2018-08-24T23:27:49.377Z,100520.70
2018-08-24T23:30:19.580Z,100524.70
2018-08-24T23:32:49.796Z,100517.06
2018-08-24T23:35:19.935Z,100514.18
2018-08-24T23:37:50.076Z,100518.27
2018-08-24T23:40:20.201Z,100511.74
2018-08-24T23:42:50.413Z,100505.88
2018-08-24T23:45:20.535Z,100505.45
2018-08-24T23:47:50.627Z,100491.81
2018-08-24T23:50:20.723Z,100505.87
2018-08-24T23:52:50.868Z,100496.10
2018-08-24T23:55:21.053Z,100495.75
2018-08-24T23:57:51.080Z,100485.72
